Shobdon, United Kingdom
Current Conditions -  °F | °C
As of 10:50 AM on Wednesday 22 Oct 2014 (Local Time) from EGBJ Reporting Station
Few Clouds Few Clouds  
Wind Chill: 54°   Ceiling: Unl
Heat Index: 54°   Visibility: 6mi
Dew Point: 45°   Wind: 5mph
Humidity: 72%   Direction: 220°SW
Pressure: 30.3"   Gusts: NA
Location:  52.25°N, 2.88°W
Report Text: EGBJ 220950Z 22004KT 170V240 9999 FEW045 12/07 Q1026
Loading
Personal Weather Stations






























Interactive Weather Map
Tropical Storm Tracking
New forecast layout! Learn more

10-Day Weather Forecast

Advertisements
Track Severe Weather on mobile